createdAt,value
2019-03-10T00:00:21.495Z,58.84
2019-03-10T00:02:52.231Z,58.91
2019-03-10T00:05:22.707Z,58.86
2019-03-10T00:07:52.828Z,59.16
2019-03-10T00:10:22.985Z,59.26
2019-03-10T00:12:53.275Z,59.52
2019-03-10T00:15:24.237Z,59.48
2019-03-10T00:17:54.487Z,59.48
2019-03-10T00:20:24.896Z,59.86
2019-03-10T00:22:54.957Z,60.51
2019-03-10T00:25:25.359Z,60.98
2019-03-10T00:27:55.370Z,61.37
2019-03-10T00:30:25.517Z,61.32
2019-03-10T00:32:55.446Z,61.25
2019-03-10T00:35:25.537Z,61.32
2019-03-10T00:37:55.615Z,61.28
2019-03-10T00:41:07.201Z,61.36
2019-03-10T00:44:22.306Z,61.25
2019-03-10T00:47:36.208Z,60.88
2019-03-10T00:50:49.661Z,60.84
2019-03-10T00:53:19.600Z,61.03
2019-03-10T00:55:49.603Z,61.21
2019-03-10T00:58:19.709Z,61.24
2019-03-10T01:00:49.739Z,61.18
2019-03-10T01:03:20.022Z,61.20
2019-03-10T01:05:50.255Z,61.24
2019-03-10T01:08:20.420Z,61.52
2019-03-10T01:10:50.487Z,61.77
2019-03-10T01:13:20.721Z,61.79
2019-03-10T01:15:51.274Z,61.81
2019-03-10T01:18:23.800Z,62.09
2019-03-10T01:20:54.604Z,62.40
2019-03-10T01:23:26.682Z,62.49
2019-03-10T01:25:56.534Z,62.52
2019-03-10T01:28:27.910Z,62.42
2019-03-10T01:31:05.122Z,62.43
2019-03-10T01:34:10.943Z,62.31
2019-03-10T01:36:40.779Z,61.98
2019-03-10T01:39:11.520Z,61.46
2019-03-10T01:41:41.911Z,61.13
2019-03-10T01:44:12.286Z,61.03
2019-03-10T01:46:42.471Z,61.14
2019-03-10T01:49:12.706Z,60.95
2019-03-10T01:51:43.471Z,60.62
2019-03-10T01:54:13.553Z,60.31
2019-03-10T01:56:43.748Z,60.19
2019-03-10T01:59:14.239Z,60.08
2019-03-10T02:01:44.390Z,60.11
2019-03-10T02:04:14.431Z,60.27
2019-03-10T02:06:44.315Z,60.29
2019-03-10T02:09:14.951Z,60.55
2019-03-10T02:11:45.080Z,59.96
2019-03-10T02:14:15.718Z,59.41
2019-03-10T02:16:45.873Z,58.99
2019-03-10T02:19:15.827Z,58.71
2019-03-10T02:21:47.808Z,58.49
2019-03-10T02:24:23.700Z,58.46
2019-03-10T02:26:50.391Z,58.26
2019-03-10T02:29:20.827Z,58.18
2019-03-10T02:31:50.888Z,58.01
2019-03-10T02:34:21.420Z,58.11
2019-03-10T02:36:51.569Z,58.18
2019-03-10T02:39:22.125Z,57.94
2019-03-10T02:41:52.318Z,57.67
2019-03-10T02:44:22.518Z,57.46
2019-03-10T02:46:52.864Z,57.29
2019-03-10T02:49:23.036Z,57.23
2019-03-10T02:51:53.748Z,57.42
2019-03-10T02:54:25.117Z,57.78
2019-03-10T02:57:13.078Z,58.07
2019-03-10T02:59:43.339Z,58.21
2019-03-10T03:02:13.243Z,58.31
2019-03-10T03:04:43.336Z,58.39
2019-03-10T03:07:13.810Z,58.42
2019-03-10T03:09:45.908Z,58.47
2019-03-10T03:12:16.084Z,58.33
2019-03-10T03:14:46.303Z,58.40
2019-03-10T03:17:16.444Z,58.64
2019-03-10T03:19:46.732Z,58.62
2019-03-10T03:22:16.781Z,58.71
2019-03-10T03:24:46.847Z,58.89
2019-03-10T03:27:17.109Z,58.64
2019-03-10T03:29:47.158Z,58.58
2019-03-10T03:32:17.428Z,58.49
2019-03-10T03:34:47.904Z,58.40
2019-03-10T03:37:20.120Z,58.17
2019-03-10T03:39:52.425Z,57.75
2019-03-10T03:42:22.471Z,57.44
2019-03-10T03:44:52.201Z,57.18
2019-03-10T03:47:22.464Z,57.48
2019-03-10T03:49:52.357Z,57.32
2019-03-10T03:52:22.720Z,57.11
2019-03-10T03:54:52.732Z,56.91
2019-03-10T03:57:22.885Z,56.98
2019-03-10T03:59:53.110Z,56.79
2019-03-10T04:02:48.901Z,56.59
2019-03-10T04:05:18.855Z,56.51
2019-03-10T04:07:48.942Z,56.47
2019-03-10T04:10:18.997Z,56.54
2019-03-10T04:12:49.091Z,56.49
2019-03-10T04:15:19.055Z,56.59
2019-03-10T04:17:49.532Z,56.36
2019-03-10T04:20:19.802Z,56.50
2019-03-10T04:22:50.197Z,56.54
2019-03-10T04:25:20.287Z,56.58
2019-03-10T04:27:50.255Z,56.69
2019-03-10T04:30:20.505Z,56.72
2019-03-10T04:32:50.615Z,56.83
2019-03-10T04:35:20.838Z,57.24
2019-03-10T04:37:50.786Z,57.59
2019-03-10T04:40:20.746Z,57.78
2019-03-10T04:42:51.166Z,58.12
2019-03-10T04:45:21.296Z,58.49
2019-03-10T04:47:51.274Z,58.73
2019-03-10T04:50:21.548Z,58.99
2019-03-10T04:52:51.566Z,59.23
2019-03-10T04:55:26.613Z,59.50
2019-03-10T04:58:07.735Z,59.75
2019-03-10T05:00:39.329Z,59.96
2019-03-10T05:03:09.531Z,60.18
2019-03-10T05:05:39.680Z,60.54
2019-03-10T05:08:10.028Z,60.62
2019-03-10T05:10:40.444Z,60.82
2019-03-10T05:13:10.555Z,60.97
2019-03-10T05:15:40.621Z,61.16
2019-03-10T05:18:11.058Z,61.31
2019-03-10T05:20:41.267Z,61.60
2019-03-10T05:23:43.330Z,61.94
2019-03-10T05:26:14.532Z,62.10
2019-03-10T05:28:46.323Z,62.25
2019-03-10T05:31:18.942Z,62.42
2019-03-10T05:33:51.034Z,62.55
2019-03-10T05:36:21.159Z,62.74
2019-03-10T05:38:51.206Z,62.82
2019-03-10T05:41:21.909Z,62.92
2019-03-10T05:43:52.180Z,62.91
2019-03-10T05:46:22.461Z,63.01
2019-03-10T05:48:52.565Z,63.02
2019-03-10T05:51:22.361Z,62.98
2019-03-10T05:53:52.369Z,62.85
2019-03-10T05:56:22.496Z,62.71
2019-03-10T05:58:53.235Z,62.60
2019-03-10T06:01:23.624Z,62.50
2019-03-10T06:03:54.071Z,62.53
2019-03-10T06:06:24.571Z,62.87
2019-03-10T06:08:54.487Z,63.08
2019-03-10T06:11:25.269Z,63.33
2019-03-10T06:13:58.091Z,63.63
2019-03-10T06:16:28.955Z,64.13
2019-03-10T06:18:59.458Z,64.74
2019-03-10T06:21:30.761Z,65.19
2019-03-10T06:24:01.801Z,65.98
2019-03-10T06:26:31.932Z,66.78
2019-03-10T06:29:05.275Z,67.87
2019-03-10T06:31:37.800Z,68.53
2019-03-10T06:34:09.083Z,69.20
2019-03-10T06:36:41.073Z,69.72
2019-03-10T06:39:11.710Z,70.48
2019-03-10T06:41:42.223Z,71.20
2019-03-10T06:44:13.705Z,72.34
2019-03-10T06:46:45.105Z,72.94
2019-03-10T06:49:16.590Z,73.92
2019-03-10T06:51:46.862Z,74.71
2019-03-10T06:54:20.263Z,75.01
2019-03-10T06:56:50.451Z,75.51
2019-03-10T06:59:20.802Z,76.44
2019-03-10T07:01:51.466Z,76.98
2019-03-10T07:04:22.141Z,77.28
2019-03-10T07:06:52.554Z,77.79
2019-03-10T07:09:23.124Z,78.45
2019-03-10T07:11:53.574Z,79.02
2019-03-10T07:14:23.804Z,79.41
2019-03-10T07:16:54.910Z,79.75
2019-03-10T07:19:29.876Z,80.11
2019-03-10T07:22:00.423Z,80.38
2019-03-10T07:24:32.571Z,80.53
2019-03-10T07:27:04.265Z,80.71
2019-03-10T07:29:57.497Z,80.96
2019-03-10T07:32:43.171Z,81.08
2019-03-10T07:35:36.061Z,81.23
2019-03-10T07:38:32.057Z,81.22
2019-03-10T07:41:24.847Z,81.30
2019-03-10T07:44:03.607Z,81.40
2019-03-10T07:46:42.594Z,81.44
2019-03-10T07:49:39.549Z,81.52
2019-03-10T07:52:38.692Z,81.59
2019-03-10T07:55:19.238Z,81.66
2019-03-10T07:58:07.663Z,81.56
2019-03-10T08:01:00.535Z,81.54
2019-03-10T08:03:49.061Z,81.79
2019-03-10T08:06:48.916Z,81.81
2019-03-10T08:09:38.993Z,81.81
2019-03-10T08:12:40.966Z,81.67
2019-03-10T08:15:28.924Z,81.74
2019-03-10T08:18:21.545Z,81.72
2019-03-10T08:21:17.562Z,81.67
2019-03-10T08:24:05.255Z,81.51
2019-03-10T08:27:03.729Z,81.55
2019-03-10T08:29:54.612Z,81.25
2019-03-10T08:32:44.473Z,81.15
2019-03-10T08:35:46.169Z,81.08
2019-03-10T08:38:34.542Z,80.90
2019-03-10T08:41:23.799Z,80.92
2019-03-10T08:44:16.314Z,81.02
2019-03-10T08:47:04.686Z,80.84
2019-03-10T08:49:54.535Z,80.57
2019-03-10T08:52:35.986Z,80.46
2019-03-10T08:55:20.512Z,80.44
2019-03-10T08:58:10.338Z,80.16
2019-03-10T09:01:00.081Z,80.11
2019-03-10T09:03:40.230Z,80.17
2019-03-10T09:06:28.405Z,80.21
2019-03-10T09:09:19.888Z,80.02
2019-03-10T09:11:59.506Z,79.93
2019-03-10T09:14:38.790Z,79.84
2019-03-10T09:17:28.871Z,79.85
2019-03-10T09:20:10.994Z,79.84
2019-03-10T09:22:58.200Z,79.63
2019-03-10T09:25:56.455Z,79.12
2019-03-10T09:28:36.088Z,78.52
2019-03-10T09:31:24.119Z,78.37
2019-03-10T09:34:22.341Z,77.67
2019-03-10T09:37:10.726Z,76.38
2019-03-10T09:39:50.419Z,76.09
2019-03-10T09:42:42.723Z,75.66
2019-03-10T09:45:34.972Z,74.99
2019-03-10T09:48:17.205Z,74.50
2019-03-10T09:51:06.758Z,73.55
2019-03-10T09:54:03.363Z,72.73
2019-03-10T09:56:55.877Z,72.31
2019-03-10T09:59:51.470Z,72.54
2019-03-10T10:02:38.621Z,71.22
2019-03-10T10:05:40.575Z,70.89
2019-03-10T10:08:32.842Z,71.33
2019-03-10T10:11:22.883Z,71.01
2019-03-10T10:14:22.071Z,71.03
2019-03-10T10:17:20.984Z,70.97
2019-03-10T10:20:11.116Z,70.84
2019-03-10T10:22:50.791Z,71.20
2019-03-10T10:25:29.265Z,71.07
2019-03-10T10:28:10.358Z,70.82
2019-03-10T10:31:06.518Z,70.47
2019-03-10T10:33:55.793Z,70.25
2019-03-10T10:36:54.860Z,70.57
2019-03-10T10:39:38.910Z,70.29
2019-03-10T10:42:35.429Z,69.91
2019-03-10T10:45:19.677Z,70.62
2019-03-10T10:48:02.913Z,71.08
2019-03-10T10:50:43.029Z,70.93
2019-03-10T10:53:25.906Z,70.85
2019-03-10T10:56:25.179Z,70.20
2019-03-10T10:59:14.500Z,69.76
2019-03-10T11:02:04.463Z,68.65
2019-03-10T11:04:54.840Z,68.40
2019-03-10T11:07:50.836Z,67.69
2019-03-10T11:10:38.812Z,67.09
2019-03-10T11:13:45.468Z,66.32
2019-03-10T11:16:35.321Z,66.40
2019-03-10T11:19:24.117Z,65.44
2019-03-10T11:22:28.693Z,64.96
2019-03-10T11:25:37.461Z,65.02
2019-03-10T11:28:24.673Z,64.50
2019-03-10T11:31:04.634Z,63.57
2019-03-10T11:33:52.785Z,63.00
2019-03-10T11:40:49.954Z,62.45
2019-03-10T11:43:40.759Z,62.74
2019-03-10T11:46:45.044Z,62.82
2019-03-10T11:55:44.759Z,62.14
2019-03-10T11:58:38.138Z,62.72
2019-03-10T12:01:18.555Z,62.50
2019-03-10T12:04:10.430Z,62.66
2019-03-10T12:06:56.678Z,62.63
2019-03-10T12:09:30.070Z,63.02
2019-03-10T12:12:00.703Z,63.11
2019-03-10T12:14:30.942Z,63.26
2019-03-10T12:17:00.744Z,63.00
2019-03-10T12:19:30.834Z,62.68
2019-03-10T12:22:00.573Z,62.53
2019-03-10T12:24:30.744Z,62.44
2019-03-10T12:27:00.971Z,62.10
2019-03-10T12:29:31.812Z,62.28
2019-03-10T12:32:01.904Z,63.00
2019-03-10T12:34:32.320Z,63.21
2019-03-10T12:37:02.638Z,62.72
2019-03-10T12:39:33.711Z,62.37
2019-03-10T12:42:03.872Z,62.25
2019-03-10T12:44:34.649Z,62.38
2019-03-10T12:47:04.860Z,62.64
2019-03-10T12:49:35.554Z,62.45
2019-03-10T12:52:05.816Z,62.14
2019-03-10T12:54:36.067Z,62.05
2019-03-10T12:57:09.220Z,61.95
2019-03-10T12:59:39.785Z,61.35
2019-03-10T13:02:10.016Z,60.86
2019-03-10T13:04:40.282Z,60.52
2019-03-10T13:07:10.714Z,60.51
2019-03-10T13:09:40.762Z,60.25
2019-03-10T13:12:10.868Z,60.53
2019-03-10T13:14:41.103Z,61.03
2019-03-10T13:17:11.335Z,61.25
2019-03-10T13:19:41.341Z,61.04
2019-03-10T13:22:11.589Z,61.04
2019-03-10T13:24:41.876Z,60.95
2019-03-10T13:27:12.046Z,60.78
2019-03-10T13:29:42.559Z,60.11
2019-03-10T13:32:13.555Z,58.72
2019-03-10T13:34:44.153Z,57.80
2019-03-10T13:37:14.784Z,57.53
2019-03-10T13:39:44.933Z,57.11
2019-03-10T13:42:15.197Z,57.08
2019-03-10T13:44:45.246Z,57.09
2019-03-10T13:47:15.611Z,57.63
2019-03-10T13:56:37.066Z,58.01
2019-03-10T13:59:07.100Z,58.50
2019-03-10T14:01:37.087Z,58.68
2019-03-10T14:04:07.761Z,58.30
2019-03-10T14:06:37.842Z,58.35
2019-03-10T14:09:08.394Z,58.40
2019-03-10T14:11:39.615Z,58.22
2019-03-10T14:14:10.163Z,58.46
2019-03-10T14:16:40.629Z,58.95
2019-03-10T14:19:11.117Z,59.20
2019-03-10T14:21:41.540Z,59.49
2019-03-10T14:24:11.605Z,59.80
2019-03-10T14:26:41.816Z,59.92
2019-03-10T14:35:26.406Z,60.07
2019-03-10T14:37:56.820Z,60.21
2019-03-10T14:40:26.950Z,60.16
2019-03-10T14:42:57.533Z,60.09
2019-03-10T14:45:27.733Z,59.98
2019-03-10T14:47:58.359Z,59.97
2019-03-10T14:50:28.825Z,59.72
2019-03-10T14:52:58.962Z,59.54
2019-03-10T14:55:29.195Z,59.45
2019-03-10T14:57:59.214Z,59.28
2019-03-10T15:00:30.285Z,59.39
2019-03-10T15:03:00.558Z,59.39
2019-03-10T15:05:31.427Z,59.65
2019-03-10T15:08:01.315Z,59.85
2019-03-10T15:10:31.214Z,60.08
2019-03-10T15:13:02.065Z,60.32
2019-03-10T15:15:32.795Z,60.61
2019-03-10T15:18:03.234Z,60.88
2019-03-10T15:20:34.062Z,61.08
2019-03-10T15:23:04.445Z,61.34
2019-03-10T15:25:34.622Z,61.32
2019-03-10T15:28:04.786Z,61.38
2019-03-10T15:30:35.562Z,61.51
2019-03-10T15:33:05.832Z,61.67
2019-03-10T15:35:35.722Z,61.87
2019-03-10T15:38:06.019Z,61.94
2019-03-10T15:40:36.513Z,62.01
2019-03-10T15:43:06.965Z,62.06
2019-03-10T15:45:37.092Z,62.20
2019-03-10T15:48:07.912Z,62.33
2019-03-10T15:50:38.183Z,62.47
2019-03-10T15:53:08.511Z,62.58
2019-03-10T15:55:38.950Z,62.54
2019-03-10T15:58:09.013Z,62.58
2019-03-10T16:00:39.371Z,62.72
2019-03-10T16:03:09.978Z,62.97
2019-03-10T16:05:39.676Z,63.21
2019-03-10T16:08:09.874Z,63.36
2019-03-10T16:10:39.998Z,63.50
2019-03-10T16:13:10.206Z,63.66
2019-03-10T16:15:40.334Z,63.75
2019-03-10T16:18:10.866Z,63.69
2019-03-10T16:20:40.981Z,63.73
2019-03-10T16:23:12.797Z,63.63
2019-03-10T16:25:43.600Z,63.54
2019-03-10T16:28:13.962Z,63.56
2019-03-10T16:30:44.547Z,63.56
2019-03-10T16:33:15.116Z,63.50
2019-03-10T16:35:45.597Z,63.62
2019-03-10T16:38:15.962Z,63.84
2019-03-10T16:40:46.139Z,63.92
2019-03-10T16:43:16.411Z,63.82
2019-03-10T16:45:46.293Z,63.79
2019-03-10T16:48:16.562Z,63.75
2019-03-10T16:50:46.641Z,63.77
2019-03-10T16:53:16.591Z,63.71
2019-03-10T16:55:47.687Z,63.61
2019-03-10T16:58:18.363Z,63.35
2019-03-10T17:00:48.405Z,63.12
2019-03-10T17:03:18.633Z,62.82
2019-03-10T17:05:49.481Z,62.58
2019-03-10T17:08:19.544Z,62.44
2019-03-10T17:10:49.768Z,62.36
2019-03-10T17:13:19.874Z,62.27
2019-03-10T17:15:50.140Z,62.23
2019-03-10T17:18:20.900Z,62.28
2019-03-10T17:20:51.296Z,62.18
2019-03-10T17:23:21.582Z,62.06
2019-03-10T17:25:51.586Z,61.83
2019-03-10T17:28:21.573Z,61.76
2019-03-10T17:30:52.072Z,61.79
2019-03-10T17:33:22.175Z,61.77
2019-03-10T17:35:52.603Z,61.70
2019-03-10T17:38:22.646Z,61.67
2019-03-10T17:40:53.882Z,61.65
2019-03-10T17:43:24.227Z,61.63
2019-03-10T17:45:54.265Z,61.58
2019-03-10T17:48:24.367Z,61.47
2019-03-10T17:50:54.355Z,61.39
2019-03-10T17:53:24.408Z,61.30
2019-03-10T17:55:54.259Z,61.25
2019-03-10T17:58:24.627Z,61.23
2019-03-10T18:00:54.684Z,61.29
2019-03-10T18:03:24.916Z,61.34
2019-03-10T18:05:55.075Z,61.41
2019-03-10T18:08:25.469Z,61.44
2019-03-10T18:10:55.735Z,61.49
2019-03-10T18:13:26.099Z,61.48
2019-03-10T18:15:56.711Z,61.75
2019-03-10T18:18:27.088Z,62.95
2019-03-10T18:20:57.438Z,62.94
2019-03-10T18:23:27.419Z,63.83
2019-03-10T18:25:58.453Z,64.05
2019-03-10T18:28:28.879Z,63.57
2019-03-10T18:30:58.689Z,62.98
2019-03-10T18:33:29.065Z,62.74
2019-03-10T18:35:58.937Z,62.51
2019-03-10T18:38:29.629Z,62.40
2019-03-10T18:41:00.387Z,62.48
2019-03-10T18:43:30.714Z,62.55
2019-03-10T18:46:01.015Z,62.71
2019-03-10T18:48:31.009Z,62.82
2019-03-10T18:51:01.038Z,63.15
2019-03-10T18:53:30.885Z,63.55
2019-03-10T18:56:01.051Z,63.79
2019-03-10T18:58:31.226Z,64.01
2019-03-10T19:01:01.445Z,64.34
2019-03-10T19:03:31.912Z,64.66
2019-03-10T19:06:02.957Z,64.94
2019-03-10T19:08:33.319Z,65.17
2019-03-10T19:11:03.440Z,65.35
2019-03-10T19:13:34.117Z,65.55
2019-03-10T19:16:04.593Z,65.69
2019-03-10T19:18:37.191Z,65.82
2019-03-10T19:21:07.700Z,65.85
2019-03-10T19:23:38.179Z,65.79
2019-03-10T19:26:11.113Z,65.70
2019-03-10T19:28:40.582Z,65.67
2019-03-10T19:31:10.929Z,65.82
2019-03-10T19:33:41.726Z,65.92
2019-03-10T19:36:14.163Z,66.01
2019-03-10T19:38:44.632Z,65.90
2019-03-10T19:41:14.447Z,65.83
2019-03-10T19:43:45.023Z,65.80
2019-03-10T19:46:15.100Z,65.87
2019-03-10T19:48:45.221Z,65.92
2019-03-10T19:51:15.214Z,65.89
2019-03-10T19:53:48.460Z,66.14
2019-03-10T19:56:19.010Z,66.41
2019-03-10T19:58:49.155Z,66.49
2019-03-10T20:01:22.538Z,66.67
2019-03-10T20:03:52.693Z,67.05
2019-03-10T20:06:23.348Z,67.36
2019-03-10T20:08:53.369Z,67.62
2019-03-10T20:11:23.906Z,67.78
2019-03-10T20:13:54.336Z,67.85
2019-03-10T20:16:24.690Z,67.83
2019-03-10T20:18:55.123Z,67.83
2019-03-10T20:21:25.486Z,67.93
2019-03-10T20:23:56.609Z,68.06
2019-03-10T20:26:26.763Z,68.16
2019-03-10T20:28:57.524Z,68.36
2019-03-10T20:31:27.743Z,68.54
2019-03-10T20:33:58.269Z,68.62
2019-03-10T20:36:28.947Z,68.72
2019-03-10T20:38:58.846Z,68.95
2019-03-10T20:41:28.731Z,69.09
2019-03-10T20:43:58.541Z,69.30
2019-03-10T20:46:28.520Z,69.40
2019-03-10T20:48:58.577Z,69.53
2019-03-10T20:51:28.462Z,69.68
2019-03-10T20:53:58.286Z,69.92
2019-03-10T20:56:29.144Z,70.06
2019-03-10T20:58:58.814Z,70.21
2019-03-10T21:01:28.810Z,70.36
2019-03-10T21:03:58.728Z,70.55
2019-03-10T21:06:28.926Z,70.73
2019-03-10T21:08:58.877Z,70.92
2019-03-10T21:11:28.592Z,71.14
2019-03-10T21:13:58.755Z,71.34
2019-03-10T21:16:28.688Z,71.47
2019-03-10T21:18:58.500Z,71.60
2019-03-10T21:21:28.480Z,71.74
2019-03-10T21:23:58.598Z,71.86
2019-03-10T21:26:28.802Z,71.93
2019-03-10T21:28:58.691Z,71.98
2019-03-10T21:31:28.876Z,72.01
2019-03-10T21:33:58.828Z,72.09
2019-03-10T21:36:28.733Z,72.12
2019-03-10T21:38:58.519Z,72.11
2019-03-10T21:41:28.499Z,72.13
2019-03-10T21:43:58.542Z,72.12
2019-03-10T21:46:28.564Z,72.12
2019-03-10T21:48:58.675Z,72.18
2019-03-10T21:51:28.697Z,72.22
2019-03-10T21:53:58.540Z,72.31
2019-03-10T21:56:28.450Z,72.39
2019-03-10T21:58:58.349Z,72.47
2019-03-10T22:01:28.140Z,72.54
2019-03-10T22:03:58.241Z,72.63
2019-03-10T22:06:28.191Z,72.76
2019-03-10T22:08:57.984Z,72.85
2019-03-10T22:11:27.733Z,72.99
2019-03-10T22:13:57.690Z,73.01
2019-03-10T22:16:27.719Z,73.04
2019-03-10T22:18:57.869Z,73.02
2019-03-10T22:21:27.740Z,72.99
2019-03-10T22:23:59.589Z,72.99
2019-03-10T22:26:29.539Z,73.08
2019-03-10T22:28:59.427Z,73.15
2019-03-10T22:31:30.536Z,73.22
2019-03-10T22:34:01.929Z,73.25
2019-03-10T22:36:32.070Z,73.33
2019-03-10T22:39:01.938Z,73.62
2019-03-10T22:41:31.894Z,73.83
2019-03-10T22:44:01.759Z,74.03
2019-03-10T22:46:31.748Z,74.08
2019-03-10T22:49:02.247Z,74.07
2019-03-10T22:51:32.387Z,74.03
2019-03-10T22:54:02.692Z,74.11
2019-03-10T22:56:32.598Z,74.23
2019-03-10T22:59:02.875Z,74.33
2019-03-10T23:01:33.074Z,74.26
2019-03-10T23:04:02.942Z,74.17
2019-03-10T23:06:32.827Z,74.12
2019-03-10T23:09:02.452Z,74.13
2019-03-10T23:11:32.493Z,74.05
2019-03-10T23:14:02.252Z,73.99
2019-03-10T23:16:32.199Z,73.97
2019-03-10T23:19:02.516Z,74.04
2019-03-10T23:21:32.477Z,74.11
2019-03-10T23:24:02.470Z,74.15
2019-03-10T23:26:32.418Z,74.09
2019-03-10T23:29:02.086Z,74.22
2019-03-10T23:31:31.895Z,74.31
2019-03-10T23:34:01.909Z,74.32
2019-03-10T23:36:31.965Z,74.28
2019-03-10T23:39:01.931Z,74.20
2019-03-10T23:41:31.588Z,74.14
2019-03-10T23:44:01.487Z,74.11
2019-03-10T23:46:32.052Z,74.05
2019-03-10T23:49:01.570Z,74.00
2019-03-10T23:51:31.980Z,74.04
2019-03-10T23:54:01.934Z,74.08
2019-03-10T23:56:31.839Z,74.09
2019-03-10T23:59:01.536Z,74.08
